Time;durP1;ratioP1;P1;durP2;ratioP2;P2;SDS_P1;SDS_P2;PMS_P1;PMS_P2;Temp;Humidity;BMP_temperature;BMP_pressure;BME280_temperature;BME280_humidity;BME280_pressure;Samples;Min_cycle;Max_cycle;Signal;HPM_P1;HPM_P2
2021/03/22 00:02:21;;;;;;;35.55;19.13;;;1.60;71.50;;;;;;5049482;28;20028;-75
2021/03/22 00:04:47;;;;;;;31.45;15.98;;;1.50;71.50;;;;;;5052738;28;20033;-74
2021/03/22 00:07:13;;;;;;;32.50;16.80;;;1.50;71.60;;;;;;5038699;28;20057;-74
2021/03/22 00:09:39;;;;;;;33.35;17.10;;;1.50;71.80;;;;;;5043511;28;20021;-75
2021/03/22 00:12:06;;;;;;;33.40;16.38;;;1.50;71.80;;;;;;5056113;28;20067;-75
2021/03/22 00:14:31;;;;;;;25.38;15.10;;;1.50;71.90;;;;;;5054551;28;20032;-75
2021/03/22 00:16:57;;;;;;;29.38;15.68;;;1.50;72.00;;;;;;5055727;28;20433;-74
2021/03/22 00:19:22;;;;;;;28.63;16.10;;;1.40;71.80;;;;;;5042801;28;20025;-75
2021/03/22 00:21:48;;;;;;;26.67;15.32;;;1.40;71.80;;;;;;5044699;28;20498;-75
2021/03/22 00:24:14;;;;;;;29.13;16.08;;;1.40;71.90;;;;;;5055088;28;20497;-74
2021/03/22 00:26:39;;;;;;;26.88;16.08;;;1.40;71.90;;;;;;5042140;28;20056;-75
2021/03/22 00:29:05;;;;;;;27.50;15.32;;;1.40;72.00;;;;;;5054017;28;20029;-75
2021/03/22 00:31:31;;;;;;;27.13;15.82;;;1.40;72.00;;;;;;5054223;28;20100;-75
2021/03/22 00:33:57;;;;;;;26.50;16.30;;;1.40;72.00;;;;;;5054323;28;20029;-75
2021/03/22 00:36:23;;;;;;;25.65;15.48;;;1.50;72.20;;;;;;5046412;28;20070;-75
2021/03/22 00:38:49;;;;;;;29.27;16.38;;;1.50;72.20;;;;;;5056019;28;20021;-75
2021/03/22 00:41:15;;;;;;;27.73;15.45;;;1.50;72.20;;;;;;5053752;28;20028;-75
2021/03/22 00:43:41;;;;;;;26.13;14.50;;;1.50;72.20;;;;;;5041269;28;20104;-75
2021/03/22 00:46:06;;;;;;;29.13;16.02;;;1.50;72.20;;;;;;5054148;28;20029;-75
2021/03/22 00:48:34;;;;;;;29.35;15.50;;;1.50;72.10;;;;;;5055283;28;20079;-75
2021/03/22 00:51:04;;;;;;;29.55;16.48;;;1.50;72.30;;;;;;5053118;28;20033;-75
2021/03/22 00:53:29;;;;;;;26.45;15.75;;;1.50;72.40;;;;;;5040720;28;20117;-74
2021/03/22 00:55:55;;;;;;;34.08;17.13;;;1.50;72.30;;;;;;5043274;28;20512;-75
2021/03/22 00:58:21;;;;;;;29.02;16.38;;;1.50;72.40;;;;;;5055145;28;20104;-75
2021/03/22 01:00:58;;;;;;;29.25;15.55;;;1.40;72.50;;;;;;5052993;28;20021;-75
2021/03/22 01:03:32;;;;;;;28.42;14.38;;;1.40;72.50;;;;;;5053656;28;20467;-75
2021/03/22 01:05:59;;;;;;;24.77;14.18;;;1.50;72.50;;;;;;5051588;28;20131;-75
2021/03/22 01:08:27;;;;;;;26.33;14.60;;;1.40;72.40;;;;;;5045004;28;20136;-75
2021/03/22 01:11:03;;;;;;;26.25;15.30;;;1.50;72.40;;;;;;5053326;28;20489;-75
2021/03/22 01:13:39;;;;;;;27.52;15.27;;;1.40;72.40;;;;;;5054862;28;20033;-74
2021/03/22 01:16:05;;;;;;;27.55;15.30;;;1.40;72.50;;;;;;5053248;28;20029;-74
2021/03/22 01:18:36;;;;;;;28.55;15.57;;;1.40;72.60;;;;;;5053598;28;20043;-74
2021/03/22 01:21:17;;;;;;;26.77;14.85;;;1.40;72.70;;;;;;5053575;28;20040;-73
2021/03/22 01:23:43;;;;;;;28.88;15.40;;;1.40;72.80;;;;;;5053392;28;20037;-73
2021/03/22 01:26:12;;;;;;;29.90;16.63;;;1.40;72.80;;;;;;5054329;28;20108;-73
2021/03/22 01:28:38;;;;;;;28.98;16.60;;;1.40;72.80;;;;;;5054473;28;20036;-74
2021/03/22 01:31:04;;;;;;;30.13;15.68;;;1.40;73.00;;;;;;5050926;28;20032;-74
2021/03/22 01:33:35;;;;;;;25.42;14.32;;;1.40;72.90;;;;;;5045661;28;20025;-74
2021/03/22 01:36:07;;;;;;;28.38;14.68;;;1.40;73.00;;;;;;5055544;28;20108;-73
2021/03/22 01:38:33;;;;;;;28.08;14.63;;;1.30;72.90;;;;;;5058328;28;20051;-74
2021/03/22 01:41:25;;;;;;;24.08;14.38;;;1.40;73.00;;;;;;5057213;28;20063;-73
2021/03/22 01:44:11;;;;;;;30.83;15.15;;;1.40;73.00;;;;;;5055445;28;20029;-74
2021/03/22 01:46:38;;;;;;;24.67;13.55;;;1.40;72.90;;;;;;5050574;28;20471;-75
2021/03/22 01:49:05;;;;;;;23.15;13.38;;;1.30;72.80;;;;;;5052296;28;20079;-74
2021/03/22 01:51:33;;;;;;;26.35;15.38;;;1.40;72.80;;;;;;5054585;28;20024;-74
2021/03/22 01:54:00;;;;;;;23.58;12.95;;;1.40;72.80;;;;;;5053220;28;20392;-74
2021/03/22 01:56:25;;;;;;;27.58;13.50;;;1.30;72.60;;;;;;5052180;28;20067;-73
2021/03/22 01:58:52;;;;;;;26.83;13.68;;;1.40;72.50;;;;;;5052963;28;20439;-74
2021/03/22 02:01:20;;;;;;;28.70;14.00;;;1.40;72.30;;;;;;5040175;28;20053;-74
2021/03/22 02:03:47;;;;;;;29.33;14.50;;;1.40;72.00;;;;;;5051131;28;20078;-74
2021/03/22 02:06:13;;;;;;;29.13;15.50;;;1.40;71.90;;;;;;5049938;28;20083;-74
2021/03/22 02:08:41;;;;;;;26.98;14.43;;;1.40;71.70;;;;;;5049285;28;20029;-74
2021/03/22 02:11:21;;;;;;;27.75;15.32;;;1.40;71.80;;;;;;5052328;28;20427;-74
2021/03/22 02:13:48;;;;;;;28.48;14.77;;;1.40;71.80;;;;;;5053468;28;20383;-76
2021/03/22 02:16:18;;;;;;;25.08;14.05;;;1.40;71.70;;;;;;5051810;28;20029;-75
2021/03/22 02:18:53;;;;;;;29.25;15.82;;;1.30;71.60;;;;;;5053289;28;20598;-76
2021/03/22 02:21:39;;;;;;;31.10;17.02;;;1.30;71.60;;;;;;5053656;28;20114;-76
2021/03/22 02:24:20;;;;;;;48.17;22.83;;;1.30;71.70;;;;;;5051348;28;20119;-76
2021/03/22 02:27:32;;;;;;;54.65;23.60;;;1.30;71.80;;;;;;5053122;28;20479;-76
2021/03/22 02:30:27;;;;;;;49.47;22.02;;;1.30;71.70;;;;;;5031251;28;20026;-77
2021/03/22 02:33:21;;;;;;;30.15;16.10;;;1.20;71.60;;;;;;5050299;28;20059;-73
2021/03/22 02:36:40;;;;;;;28.88;15.77;;;1.20;71.90;;;;;;5052037;28;20045;-76
2021/03/22 02:39:06;;;;;;;29.50;15.52;;;1.10;72.00;;;;;;5031407;28;20034;-76
2021/03/22 02:41:45;;;;;;;29.75;16.17;;;1.10;72.00;;;;;;5034389;28;20021;-76
2021/03/22 02:44:17;;;;;;;27.88;16.80;;;1.10;72.10;;;;;;5039679;28;20049;-75
2021/03/22 02:46:43;;;;;;;33.08;17.48;;;1.10;72.10;;;;;;5052078;28;20025;-76
2021/03/22 02:49:12;;;;;;;33.85;17.40;;;1.00;72.20;;;;;;5051589;28;20048;-76
2021/03/22 02:51:55;;;;;;;43.80;19.70;;;1.00;72.40;;;;;;5051909;28;20062;-77
2021/03/22 02:54:34;;;;;;;40.50;19.08;;;1.00;72.50;;;;;;5046943;28;20117;-76
2021/03/22 02:57:10;;;;;;;33.75;16.77;;;1.10;72.60;;;;;;5040406;28;20041;-76
2021/03/22 03:00:00;;;;;;;32.63;17.02;;;1.10;72.90;;;;;;5051565;28;20021;-76
2021/03/22 03:02:30;;;;;;;33.65;17.83;;;1.10;72.90;;;;;;5042804;28;20033;-76
2021/03/22 03:04:56;;;;;;;80.15;33.97;;;1.20;72.80;;;;;;5048081;28;20049;-76
2021/03/22 03:07:25;;;;;;;212.93;72.22;;;1.20;72.70;;;;;;5040121;28;20075;-76
2021/03/22 03:09:50;;;;;;;254.48;84.15;;;1.20;72.50;;;;;;5051431;28;20472;-75
2021/03/22 03:12:19;;;;;;;97.15;35.15;;;1.20;72.10;;;;;;5045883;28;20033;-76
2021/03/22 03:14:49;;;;;;;39.10;19.75;;;1.20;72.10;;;;;;5046322;28;20079;-76
2021/03/22 03:17:16;;;;;;;29.48;15.52;;;1.20;72.10;;;;;;5037925;28;20041;-76
2021/03/22 03:19:42;;;;;;;21.52;12.70;;;1.30;72.60;;;;;;5048397;28;20029;-76
2021/03/22 03:22:08;;;;;;;26.67;14.88;;;1.20;71.70;;;;;;5051933;28;20033;-77
2021/03/22 03:24:36;;;;;;;32.70;17.63;;;1.30;71.60;;;;;;5054212;28;20163;-76
2021/03/22 03:27:03;;;;;;;26.80;16.48;;;1.20;71.50;;;;;;5054839;28;20029;-76
2021/03/22 03:29:28;;;;;;;26.65;14.85;;;1.20;71.50;;;;;;5055221;28;20051;-76
2021/03/22 03:31:54;;;;;;;29.88;16.67;;;1.10;71.50;;;;;;5059331;28;20096;-74
2021/03/22 03:34:20;;;;;;;35.97;19.30;;;1.10;71.50;;;;;;5060418;28;20502;-76
2021/03/22 03:36:45;;;;;;;37.45;20.90;;;1.10;71.50;;;;;;5052895;28;20044;-75
2021/03/22 03:39:11;;;;;;;37.97;19.98;;;1.00;71.50;;;;;;5046623;28;20025;-77
2021/03/22 03:41:41;;;;;;;38.20;20.38;;;1.00;71.60;;;;;;5044078;28;20033;-76
2021/03/22 03:44:08;;;;;;;31.15;15.80;;;1.00;71.70;;;;;;5051452;28;20087;-76
2021/03/22 03:46:34;;;;;;;25.80;14.93;;;1.00;71.80;;;;;;5056884;28;20536;-77
2021/03/22 03:49:00;;;;;;;29.30;16.25;;;1.00;72.00;;;;;;5055869;28;20112;-76
2021/03/22 03:51:26;;;;;;;28.25;16.25;;;1.00;72.20;;;;;;5050988;28;20024;-76
2021/03/22 03:53:51;;;;;;;31.40;17.20;;;1.00;72.30;;;;;;5044273;28;20368;-76
2021/03/22 03:56:17;;;;;;;29.90;16.33;;;1.00;72.40;;;;;;5050228;28;20082;-76
2021/03/22 03:58:43;;;;;;;28.10;14.98;;;1.00;72.60;;;;;;5056219;28;20025;-76
2021/03/22 04:01:08;;;;;;;27.98;15.32;;;1.10;72.70;;;;;;5050396;28;20035;-75
2021/03/22 04:03:39;;;;;;;28.77;15.32;;;1.10;72.60;;;;;;5055443;28;20110;-76
2021/03/22 04:06:08;;;;;;;28.23;15.65;;;1.20;72.50;;;;;;5055226;28;20028;-76
2021/03/22 04:08:36;;;;;;;27.08;15.15;;;1.20;72.40;;;;;;5055528;28;20051;-75
2021/03/22 04:11:04;;;;;;;28.88;15.43;;;1.30;72.10;;;;;;5046354;28;20083;-76
2021/03/22 04:13:32;;;;;;;25.65;14.93;;;1.30;72.00;;;;;;5055649;28;20017;-76
2021/03/22 04:15:59;;;;;;;26.98;14.27;;;1.30;71.80;;;;;;5054869;28;20075;-76
2021/03/22 04:18:24;;;;;;;25.40;14.20;;;1.20;71.80;;;;;;5055759;28;20036;-76
2021/03/22 04:20:50;;;;;;;28.80;15.10;;;1.30;71.80;;;;;;5044786;28;20090;-76
2021/03/22 04:23:16;;;;;;;44.47;20.90;;;1.30;71.70;;;;;;5050413;28;20029;-77
2021/03/22 04:25:42;;;;;;;43.05;21.98;;;1.30;71.70;;;;;;5053235;28;20471;-75
2021/03/22 04:28:08;;;;;;;56.30;23.42;;;1.40;72.00;;;;;;5055271;28;20075;-75
2021/03/22 04:30:34;;;;;;;63.63;25.20;;;1.50;72.20;;;;;;5055475;28;20021;-76
2021/03/22 04:33:00;;;;;;;66.45;25.08;;;1.70;72.10;;;;;;5054097;28;20025;-75
2021/03/22 04:35:27;;;;;;;72.78;27.15;;;1.90;72.00;;;;;;5053876;28;20032;-76
2021/03/22 04:37:54;;;;;;;59.05;24.33;;;2.10;71.90;;;;;;5034945;28;20078;-75
2021/03/22 04:40:23;;;;;;;26.50;14.02;;;2.40;71.70;;;;;;5049610;28;20025;-75
2021/03/22 04:42:49;;;;;;;149.85;66.40;;;2.80;72.30;;;;;;5040706;28;20597;-76
2021/03/22 04:45:17;;;;;;;22.10;12.90;;;3.30;71.40;;;;;;5053856;28;20040;-76
2021/03/22 04:47:43;;;;;;;22.40;11.45;;;3.70;70.20;;;;;;5053171;28;20021;-76
2021/03/22 04:50:09;;;;;;;22.58;12.88;;;3.80;69.00;;;;;;5052072;28;20056;-76
2021/03/22 04:52:35;;;;;;;26.35;14.65;;;4.00;68.40;;;;;;5053757;28;20032;-76
2021/03/22 04:55:01;;;;;;;27.08;14.23;;;4.10;68.40;;;;;;5053887;28;20053;-76
2021/03/22 04:57:29;;;;;;;30.52;15.55;;;4.50;69.10;;;;;;5053909;28;20079;-78
2021/03/22 04:59:56;;;;;;;30.40;16.13;;;5.00;68.30;;;;;;5054862;28;20079;-78
2021/03/22 05:02:22;;;;;;;31.70;16.08;;;5.20;65.90;;;;;;5052268;28;20094;-77
2021/03/22 05:04:48;;;;;;;26.52;16.00;;;5.10;64.10;;;;;;5050592;28;20107;-77
2021/03/22 05:07:15;;;;;;;26.60;14.70;;;5.00;64.60;;;;;;5053145;28;20148;-78
2021/03/22 05:09:41;;;;;;;25.75;15.32;;;5.10;65.00;;;;;;5047738;28;20048;-76
2021/03/22 05:12:07;;;;;;;24.33;15.30;;;5.20;65.50;;;;;;5056928;28;20095;-76
2021/03/22 05:14:33;;;;;;;26.83;15.77;;;5.80;67.50;;;;;;5051262;28;20116;-76
2021/03/22 05:16:59;;;;;;;38.38;19.58;;;6.50;67.70;;;;;;5058207;28;20079;-76
2021/03/22 05:19:25;;;;;;;41.20;20.55;;;6.80;63.70;;;;;;5058075;28;20036;-75
2021/03/22 05:21:54;;;;;;;40.97;21.63;;;6.50;61.30;;;;;;5056922;28;20036;-76
2021/03/22 05:24:19;;;;;;;41.65;20.67;;;6.10;60.50;;;;;;5055251;28;20063;-77
2021/03/22 05:26:45;;;;;;;28.63;15.73;;;5.60;60.20;;;;;;5047022;28;20049;-75
2021/03/22 05:29:11;;;;;;;28.17;16.75;;;5.20;60.50;;;;;;5053496;28;20017;-76
2021/03/22 05:31:36;;;;;;;26.33;15.30;;;4.80;61.30;;;;;;5041050;28;20030;-76
2021/03/22 05:34:02;;;;;;;29.83;17.35;;;4.50;62.00;;;;;;5052168;28;20107;-75
2021/03/22 05:36:28;;;;;;;27.67;16.00;;;4.30;62.60;;;;;;5054446;28;20039;-76
2021/03/22 05:38:54;;;;;;;30.42;17.20;;;4.20;63.30;;;;;;5052685;28;20033;-72
2021/03/22 05:41:22;;;;;;;30.98;17.45;;;4.20;63.80;;;;;;5053757;28;20456;-77
2021/03/22 05:43:57;;;;;;;29.45;16.98;;;4.10;64.00;;;;;;5052517;28;20449;-77
2021/03/22 05:47:01;;;;;;;28.08;16.77;;;4.20;64.20;;;;;;5043739;28;20111;-78
2021/03/22 05:49:54;;;;;;;27.95;17.10;;;4.30;64.80;;;;;;5037169;28;20037;-77
2021/03/22 05:52:32;;;;;;;31.25;18.63;;;4.40;64.90;;;;;;5051282;28;20132;-78
2021/03/22 05:55:34;;;;;;;33.17;18.75;;;4.70;65.20;;;;;;5047570;28;20080;-77
2021/03/22 05:58:02;;;;;;;34.97;17.92;;;5.00;65.40;;;;;;5054225;28;20422;-78
2021/03/22 06:00:49;;;;;;;46.83;21.48;;;5.20;64.70;;;;;;5052330;28;20061;-77
2021/03/22 06:03:30;;;;;;;44.85;21.63;;;5.40;64.20;;;;;;5052141;28;20083;-78
2021/03/22 06:06:02;;;;;;;51.42;22.52;;;5.60;63.80;;;;;;5053022;28;20032;-78
2021/03/22 06:08:40;;;;;;;55.25;22.27;;;5.70;63.50;;;;;;5049723;28;20123;-79
2021/03/22 06:11:27;;;;;;;48.60;22.63;;;5.80;63.00;;;;;;5053547;28;20056;-78
2021/03/22 06:14:10;;;;;;;65.80;28.17;;;5.80;62.50;;;;;;5033756;28;20495;-76
2021/03/22 06:16:39;;;;;;;53.47;23.13;;;5.70;61.90;;;;;;5047244;28;20036;-77
2021/03/22 06:19:09;;;;;;;44.25;18.20;;;5.40;61.10;;;;;;5039163;28;20471;-79
2021/03/22 06:21:38;;;;;;;53.55;23.88;;;5.10;60.70;;;;;;5063799;28;20055;-79
2021/03/22 06:24:17;;;;;;;69.65;27.48;;;4.90;61.50;;;;;;5040963;28;20055;-74
2021/03/22 06:26:51;;;;;;;78.45;32.33;;;4.70;62.00;;;;;;5051948;28;20455;-73
2021/03/22 06:29:26;;;;;;;57.28;25.13;;;4.50;62.70;;;;;;5035696;28;20034;-77
2021/03/22 06:32:02;;;;;;;73.50;30.48;;;4.50;63.20;;;;;;5033816;28;20059;-73
2021/03/22 06:34:54;;;;;;;73.35;31.63;;;4.40;63.20;;;;;;5044576;28;20155;-73
2021/03/22 06:37:24;;;;;;;48.10;22.35;;;4.20;63.70;;;;;;5041275;28;20120;-74
2021/03/22 06:40:04;;;;;;;29.02;16.50;;;4.10;64.20;;;;;;5048570;28;20036;-74
2021/03/22 06:42:30;;;;;;;26.20;13.48;;;4.00;64.70;;;;;;5040728;28;20021;-75
2021/03/22 06:44:55;;;;;;;25.90;14.13;;;3.90;64.90;;;;;;5038079;28;20102;-74
2021/03/22 06:47:33;;;;;;;28.42;15.93;;;3.80;65.20;;;;;;5042204;28;20055;-74
2021/03/22 06:50:27;;;;;;;26.27;15.93;;;3.80;65.80;;;;;;5037028;28;20100;-76
2021/03/22 06:52:53;;;;;;;29.80;16.83;;;3.80;66.30;;;;;;5037602;28;20056;-76
2021/03/22 06:55:28;;;;;;;46.78;23.35;;;3.90;66.60;;;;;;5040055;28;20075;-78
2021/03/22 06:57:54;;;;;;;52.22;21.40;;;4.00;66.80;;;;;;5043279;28;20021;-76
2021/03/22 07:00:23;;;;;;;53.20;24.10;;;4.20;67.00;;;;;;5050832;28;20059;-80
2021/03/22 07:02:59;;;;;;;61.72;23.75;;;4.40;67.60;;;;;;5058321;28;20040;-80
2021/03/22 07:05:28;;;;;;;66.22;29.90;;;4.70;67.50;;;;;;5042090;28;20044;-80
2021/03/22 07:08:05;;;;;;;80.90;32.45;;;4.80;66.40;;;;;;5044696;28;20072;-73
2021/03/22 07:10:39;;;;;;;71.40;28.55;;;5.00;65.70;;;;;;5049807;28;20044;-83
2021/03/22 07:13:23;;;;;;;73.88;30.77;;;5.10;65.50;;;;;;5041144;28;20041;-86
2021/03/22 07:16:12;;;;;;;55.45;22.92;;;5.20;65.00;;;;;;5043801;28;20037;-88
2021/03/22 07:18:38;;;;;;;44.28;22.40;;;5.40;65.30;;;;;;5040137;28;20025;-88
2021/03/22 07:21:29;;;;;;;74.43;24.65;;;6.10;67.40;;;;;;5047438;28;20046;-86
2021/03/22 07:24:10;;;;;;;56.85;25.35;;;7.20;67.70;;;;;;5044028;28;20040;-84
2021/03/22 07:26:45;;;;;;;57.72;25.27;;;8.40;64.50;;;;;;5050081;28;20033;-85
2021/03/22 07:29:38;;;;;;;59.28;25.50;;;9.10;63.60;;;;;;5050493;28;20124;-84
2021/03/22 07:32:12;;;;;;;61.35;27.70;;;10.10;62.70;;;;;;5047845;28;20108;-85
2021/03/22 07:35:00;;;;;;;59.22;27.73;;;11.00;58.10;;;;;;5045220;28;20056;-88
2021/03/22 07:37:43;;;;;;;72.25;34.05;;;11.60;56.30;;;;;;5048333;28;20091;-87
2021/03/22 07:40:30;;;;;;;88.72;40.55;;;12.40;55.50;;;;;;5045085;28;20037;-85
2021/03/22 07:43:26;;;;;;;97.63;44.75;;;12.50;52.00;;;;;;5053853;28;20379;-86
2021/03/22 07:46:04;;;;;;;88.90;39.30;;;12.20;51.80;;;;;;5071753;28;20033;-87
2021/03/22 07:49:26;;;;;;;42.72;21.50;;;11.80;50.40;;;;;;5045678;28;20029;-82
2021/03/22 07:52:06;;;;;;;93.85;40.67;;;11.40;50.60;;;;;;5039800;28;20028;-82
2021/03/22 07:55:02;;;;;;;62.08;28.73;;;10.90;51.10;;;;;;5046461;28;20043;-84
2021/03/22 07:57:28;;;;;;;36.03;20.83;;;10.90;52.20;;;;;;5039722;28;20034;-80
2021/03/22 08:00:15;;;;;;;35.78;19.95;;;11.40;52.70;;;;;;5044872;28;20036;-80
2021/03/22 08:02:59;;;;;;;32.95;20.55;;;11.50;51.40;;;;;;5041971;28;20120;-79
2021/03/22 08:05:49;;;;;;;29.83;19.02;;;12.00;51.80;;;;;;5049948;28;20037;-77
2021/03/22 08:08:27;;;;;;;32.90;19.17;;;12.00;51.20;;;;;;5041265;28;20076;-93
2021/03/22 08:11:20;;;;;;;40.63;20.58;;;12.40;51.20;;;;;;5042583;28;20111;-74
2021/03/22 08:14:12;;;;;;;27.27;17.55;;;13.30;52.00;;;;;;5045095;28;20048;-83
2021/03/22 08:16:55;;;;;;;35.58;20.20;;;14.40;48.60;;;;;;5044240;28;20033;-80
2021/03/22 08:19:43;;;;;;;28.63;16.90;;;14.80;46.80;;;;;;5046260;28;20090;-75
2021/03/22 08:22:30;;;;;;;30.83;18.98;;;15.40;46.40;;;;;;5053901;28;20040;-79
2021/03/22 08:25:23;;;;;;;31.98;19.00;;;15.70;44.70;;;;;;5041891;28;20030;-76
2021/03/22 08:28:13;;;;;;;59.38;31.05;;;15.80;45.10;;;;;;5044123;28;20033;-79
2021/03/22 08:31:06;;;;;;;59.25;25.45;;;16.10;43.50;;;;;;5045929;28;20032;-75
2021/03/22 08:33:49;;;;;;;23.00;15.85;;;16.00;43.20;;;;;;5039654;28;20076;-75
2021/03/22 08:36:33;;;;;;;22.55;15.48;;;16.20;43.60;;;;;;5043361;28;20524;-86
2021/03/22 08:39:20;;;;;;;19.75;14.75;;;16.70;43.80;;;;;;5043385;28;20036;-83
2021/03/22 08:42:31;;;;;;;18.77;14.32;;;17.10;41.50;;;;;;5042520;28;20021;-80
2021/03/22 08:45:49;;;;;;;24.88;15.15;;;17.30;41.20;;;;;;5048016;28;20045;-78
2021/03/22 08:48:40;;;;;;;55.58;30.45;;;17.40;40.50;;;;;;5044063;28;20037;-78
2021/03/22 08:51:23;;;;;;;31.15;19.33;;;17.50;41.00;;;;;;5027009;28;20036;-78
2021/03/22 08:53:52;;;;;;;50.78;27.17;;;17.50;40.80;;;;;;5051861;28;20051;-79
2021/03/22 08:56:42;;;;;;;75.72;33.97;;;17.80;40.00;;;;;;5041892;28;20044;-78
2021/03/22 08:59:10;;;;;;;107.53;39.45;;;17.80;40.30;;;;;;5041545;28;20744;-83
2021/03/22 09:01:40;;;;;;;68.28;30.83;;;17.70;40.40;;;;;;5040932;28;20063;-83
2021/03/22 09:04:44;;;;;;;59.38;29.90;;;17.90;40.50;;;;;;5039217;28;20187;-82
2021/03/22 09:07:10;;;;;;;82.78;37.58;;;18.50;40.50;;;;;;5049895;28;20063;-81
2021/03/22 09:09:38;;;;;;;53.28;27.85;;;18.90;39.50;;;;;;5052064;28;20029;-78
2021/03/22 09:12:25;;;;;;;57.67;28.45;;;19.20;39.20;;;;;;5042977;28;20036;-84
2021/03/22 09:14:52;;;;;;;66.47;35.42;;;19.20;38.10;;;;;;5041350;28;20061;-81
2021/03/22 09:17:36;;;;;;;42.42;23.70;;;19.20;38.40;;;;;;5036591;28;20041;-83
2021/03/22 09:20:27;;;;;;;51.75;25.92;;;19.10;37.00;;;;;;5037786;28;20033;-82
2021/03/22 09:22:57;;;;;;;30.52;18.33;;;18.80;36.50;;;;;;5035560;28;20035;-76
2021/03/22 09:25:46;;;;;;;71.22;31.33;;;18.60;36.20;;;;;;5044802;28;20029;-84
2021/03/22 09:28:33;;;;;;;28.48;16.05;;;18.60;36.80;;;;;;5037839;28;20404;-78
2021/03/22 09:31:25;;;;;;;23.02;14.70;;;18.30;35.60;;;;;;5040612;28;20065;-89
2021/03/22 09:33:58;;;;;;;35.72;18.15;;;18.10;34.90;;;;;;5038028;28;20028;-78
2021/03/22 09:36:46;;;;;;;61.00;25.77;;;17.60;35.70;;;;;;5039100;28;20541;-83
2021/03/22 09:39:18;;;;;;;65.82;30.02;;;17.50;36.60;;;;;;5040038;28;20086;-74
2021/03/22 09:42:04;;;;;;;38.55;21.25;;;17.80;36.50;;;;;;5036152;28;20060;-75
2021/03/22 09:44:37;;;;;;;41.53;20.73;;;17.90;36.50;;;;;;5039220;28;20369;-74
2021/03/22 09:47:15;;;;;;;80.55;27.13;;;18.10;36.70;;;;;;5038747;28;20032;-73
2021/03/22 09:50:01;;;;;;;54.55;21.92;;;18.20;37.40;;;;;;5037973;28;20028;-74
2021/03/22 09:52:32;;;;;;;41.83;19.40;;;18.50;36.40;;;;;;5042309;28;20464;-74
2021/03/22 09:54:59;;;;;;;75.97;27.73;;;18.40;36.20;;;;;;5049358;28;20068;-80
2021/03/22 09:57:42;;;;;;;34.75;17.98;;;18.20;36.50;;;;;;5041989;28;20025;-70
2021/03/22 10:00:25;;;;;;;34.65;19.17;;;18.30;35.90;;;;;;5038207;28;20124;-73
2021/03/22 10:03:00;;;;;;;38.90;20.77;;;18.50;35.60;;;;;;5043195;28;20029;-73
2021/03/22 10:05:50;;;;;;;23.80;14.32;;;17.90;35.40;;;;;;5044339;28;20035;-73
2021/03/22 10:08:27;;;;;;;32.85;19.67;;;16.70;35.60;;;;;;5044544;28;20057;-72
2021/03/22 10:10:58;;;;;;;78.85;36.08;;;15.60;37.70;;;;;;5035579;28;20460;-72
2021/03/22 10:13:36;;;;;;;23.55;12.98;;;15.00;39.00;;;;;;5043866;28;20028;-72
2021/03/22 10:16:12;;;;;;;30.00;17.52;;;14.90;39.40;;;;;;5037054;28;20044;-72
2021/03/22 10:18:42;;;;;;;116.57;37.50;;;14.50;39.40;;;;;;5041071;28;20032;-71
2021/03/22 10:21:37;;;;;;;61.10;27.10;;;13.90;40.30;;;;;;5034554;28;20041;-73
2021/03/22 10:24:33;;;;;;;60.55;24.23;;;13.50;41.80;;;;;;5040591;28;20045;-70
2021/03/22 10:27:00;;;;;;;42.78;19.15;;;13.80;42.00;;;;;;5045363;28;20044;-70
2021/03/22 10:29:33;;;;;;;25.10;14.98;;;14.00;42.10;;;;;;5033580;28;20403;-76
2021/03/22 10:32:10;;;;;;;25.88;15.38;;;14.10;41.00;;;;;;5042257;28;20070;-73
2021/03/22 10:34:50;;;;;;;35.38;18.10;;;13.70;40.60;;;;;;5039511;28;20060;-76
2021/03/22 10:37:29;;;;;;;35.50;17.38;;;13.10;41.00;;;;;;5039504;28;20044;-76
2021/03/22 10:40:17;;;;;;;57.95;26.50;;;12.80;42.20;;;;;;5040571;28;20423;-75
2021/03/22 10:42:43;;;;;;;61.17;27.58;;;12.50;42.90;;;;;;5040758;28;20107;-74
2021/03/22 10:45:18;;;;;;;73.13;30.25;;;12.20;43.60;;;;;;5047383;28;20445;-73
2021/03/22 10:47:44;;;;;;;58.13;26.15;;;12.20;44.30;;;;;;5035977;28;20044;-74
2021/03/22 10:50:19;;;;;;;64.78;27.23;;;12.10;44.30;;;;;;5049761;28;20399;-76
2021/03/22 10:52:45;;;;;;;28.67;14.77;;;12.00;44.50;;;;;;5044652;28;20038;-74
2021/03/22 10:55:30;;;;;;;60.22;25.10;;;12.00;44.50;;;;;;5045774;28;20308;-79
2021/03/22 10:57:57;;;;;;;71.47;27.20;;;11.70;44.10;;;;;;5036761;28;20032;-74
2021/03/22 11:00:28;;;;;;;33.95;16.88;;;11.40;44.60;;;;;;5042492;28;20025;-72
2021/03/22 11:02:56;;;;;;;37.15;19.27;;;11.20;45.00;;;;;;5039881;28;20036;-72
2021/03/22 11:05:38;;;;;;;56.47;25.30;;;11.00;45.30;;;;;;5040561;28;20041;-74
2021/03/22 11:08:26;;;;;;;64.97;27.20;;;10.70;45.80;;;;;;5040721;28;20044;-78
2021/03/22 11:11:05;;;;;;;58.83;26.50;;;10.60;46.60;;;;;;5035867;28;20029;-82
2021/03/22 11:13:38;;;;;;;53.53;24.98;;;10.60;47.20;;;;;;5043057;28;20364;-83
2021/03/22 11:16:05;;;;;;;33.97;17.25;;;10.70;47.20;;;;;;5054481;28;20576;-81
2021/03/22 11:18:32;;;;;;;20.52;12.63;;;10.70;47.40;;;;;;5036594;28;20438;-80
2021/03/22 11:20:59;;;;;;;20.50;12.82;;;10.80;47.30;;;;;;5041556;28;20026;-77
2021/03/22 11:23:41;;;;;;;21.20;12.27;;;10.80;47.00;;;;;;5042285;28;20026;-78
2021/03/22 11:26:17;;;;;;;21.23;12.43;;;10.90;46.80;;;;;;5048583;28;20426;-79
2021/03/22 11:28:44;;;;;;;18.67;12.32;;;11.40;47.70;;;;;;5039097;28;20029;-79
2021/03/22 11:31:36;;;;;;;18.75;11.30;;;12.60;47.30;;;;;;5042152;28;20049;-80
2021/03/22 11:34:28;;;;;;;15.68;10.90;;;13.70;45.90;;;;;;5042360;28;20037;-79
2021/03/22 11:37:22;;;;;;;16.48;11.32;;;14.80;44.30;;;;;;5043252;28;20056;-80
2021/03/22 11:40:10;;;;;;;16.27;10.73;;;14.80;42.20;;;;;;5046631;28;20017;-80
2021/03/22 11:42:58;;;;;;;15.02;10.13;;;14.40;41.70;;;;;;5034459;28;20029;-80
2021/03/22 11:45:41;;;;;;;16.35;10.18;;;14.40;41.60;;;;;;5040000;28;20044;-85
2021/03/22 11:48:22;;;;;;;14.35;9.73;;;15.00;41.30;;;;;;5044908;28;20038;-79
2021/03/22 11:50:54;;;;;;;15.48;10.55;;;15.40;40.00;;;;;;5043600;28;20022;-80
2021/03/22 11:53:24;;;;;;;14.75;10.15;;;15.30;39.20;;;;;;5041936;28;20099;-81
2021/03/22 11:55:52;;;;;;;16.38;10.82;;;14.80;38.80;;;;;;5052281;28;20033;-80
2021/03/22 11:58:26;;;;;;;18.35;11.73;;;14.30;39.00;;;;;;5044740;28;20025;-81
2021/03/22 12:00:52;;;;;;;14.48;10.30;;;13.90;39.30;;;;;;5049153;28;20427;-80
2021/03/22 12:03:30;;;;;;;15.68;10.40;;;13.50;39.30;;;;;;5041654;28;20390;-78
2021/03/22 12:06:11;;;;;;;18.25;10.65;;;13.10;39.70;;;;;;5045268;28;20078;-79
2021/03/22 12:08:48;;;;;;;16.10;11.13;;;12.60;40.20;;;;;;5052676;28;20506;-77
2021/03/22 12:11:19;;;;;;;18.75;11.32;;;12.40;40.80;;;;;;5051652;28;20033;-77
2021/03/22 12:13:47;;;;;;;16.05;10.63;;;12.10;41.20;;;;;;5053818;28;20017;-79
2021/03/22 12:16:23;;;;;;;20.70;9.73;;;11.90;41.50;;;;;;5041961;28;20056;-78
2021/03/22 12:18:51;;;;;;;17.38;9.77;;;11.80;41.50;;;;;;5042658;28;20056;-80
2021/03/22 12:21:17;;;;;;;15.07;10.55;;;11.70;41.10;;;;;;5042145;28;20550;-80
2021/03/22 12:23:44;;;;;;;16.20;10.02;;;11.50;41.00;;;;;;5043721;28;20095;-80
2021/03/22 12:26:17;;;;;;;19.27;11.32;;;11.30;40.60;;;;;;5038761;28;20387;-79
2021/03/22 12:28:57;;;;;;;16.83;11.13;;;11.10;40.30;;;;;;5036697;28;20072;-80
2021/03/22 12:31:33;;;;;;;17.00;11.30;;;11.00;40.60;;;;;;5040157;28;20468;-79
2021/03/22 12:34:02;;;;;;;18.88;13.30;;;10.90;41.40;;;;;;5039541;28;20083;-80
2021/03/22 12:36:28;;;;;;;22.88;13.52;;;10.70;42.20;;;;;;5040786;28;20068;-82
2021/03/22 12:38:54;;;;;;;20.98;13.57;;;10.70;42.80;;;;;;5040922;28;20473;-75
2021/03/22 12:41:33;;;;;;;21.50;12.98;;;10.70;43.30;;;;;;5042021;28;20056;-81
2021/03/22 12:44:00;;;;;;;21.23;14.15;;;10.70;43.80;;;;;;5040416;28;20025;-79
2021/03/22 12:46:26;;;;;;;20.77;13.10;;;10.60;43.80;;;;;;5041201;28;20084;-81
2021/03/22 12:48:52;;;;;;;24.65;13.85;;;10.50;44.00;;;;;;5037540;28;20447;-81
2021/03/22 12:51:17;;;;;;;22.27;14.10;;;10.40;44.30;;;;;;5040412;28;20037;-80
2021/03/22 12:53:43;;;;;;;22.30;13.93;;;10.30;44.50;;;;;;5049866;28;20029;-80
2021/03/22 12:56:11;;;;;;;23.88;13.85;;;10.20;44.60;;;;;;5047076;28;20373;-80
2021/03/22 12:58:37;;;;;;;21.42;13.40;;;10.10;45.00;;;;;;5049577;28;20051;-81
2021/03/22 13:01:04;;;;;;;21.00;13.65;;;9.90;45.30;;;;;;5048539;28;20498;-80
2021/03/22 13:03:30;;;;;;;24.65;14.43;;;9.90;45.70;;;;;;5050637;28;20025;-78
2021/03/22 13:05:56;;;;;;;22.55;14.02;;;9.90;45.90;;;;;;5053084;28;20060;-79
2021/03/22 13:08:25;;;;;;;23.92;13.88;;;9.90;46.10;;;;;;5044463;28;20049;-80
2021/03/22 13:10:52;;;;;;;21.30;14.18;;;9.90;46.50;;;;;;5044221;28;20044;-80